createdAt,value
2019-04-22T00:01:27.067Z,18.47
2019-04-22T00:04:00.499Z,19.33
2019-04-22T00:06:44.042Z,20.77
2019-04-22T00:09:20.939Z,21.40
2019-04-22T00:11:54.306Z,22.50
2019-04-22T00:14:13.060Z,18.60
2019-04-22T00:19:20.694Z,22.93
2019-04-22T00:21:50.213Z,19.57
2019-04-22T00:24:18.692Z,18.40
2019-04-22T00:26:50.033Z,18.70
2019-04-22T00:29:39.434Z,19.70
2019-04-22T00:32:05.024Z,22.10
2019-04-22T00:34:34.177Z,23.07
2019-04-22T00:37:11.015Z,20.97
2019-04-22T00:42:08.346Z,21.50
2019-04-22T00:44:40.340Z,21.27
2019-04-22T00:47:07.489Z,21.47
2019-04-22T00:50:06.339Z,21.30
2019-04-22T00:52:09.577Z,19.50
2019-04-22T00:54:41.535Z,23.97
2019-04-22T00:57:08.727Z,23.27
2019-04-22T00:59:40.451Z,18.97
2019-04-22T01:02:13.118Z,26.67
2019-04-22T01:04:39.261Z,24.03
2019-04-22T01:07:13.084Z,25.03
2019-04-22T01:09:38.939Z,20.27
2019-04-22T01:12:13.509Z,23.70
2019-04-22T01:14:42.579Z,19.87
2019-04-22T01:17:06.008Z,23.53
2019-04-22T01:19:47.263Z,18.70
2019-04-22T01:22:17.342Z,21.23
2019-04-22T01:24:40.767Z,19.93
2019-04-22T01:27:11.502Z,20.80
2019-04-22T01:29:42.420Z,22.90
2019-04-22T01:31:58.219Z,19.37
2019-04-22T01:34:49.330Z,26.50
2019-04-22T01:37:20.326Z,26.53
2019-04-22T01:39:57.287Z,32.50
2019-04-22T01:42:29.935Z,32.83
2019-04-22T01:44:50.867Z,24.33
2019-04-22T01:47:31.343Z,29.53
2019-04-22T01:50:04.383Z,23.03
2019-04-22T01:52:20.323Z,25.37
2019-04-22T01:54:58.561Z,29.97
2019-04-22T01:57:24.213Z,26.63
2019-04-22T01:59:52.034Z,27.17
2019-04-22T02:02:30.387Z,30.00
2019-04-22T02:05:02.788Z,27.33
2019-04-22T02:07:29.439Z,28.50
2019-04-22T02:09:55.118Z,22.43
2019-04-22T02:12:25.901Z,26.03
2019-04-22T02:14:57.809Z,27.57
2019-04-22T02:17:31.556Z,30.87
2019-04-22T02:19:57.471Z,33.67
2019-04-22T02:22:44.255Z,23.17
2019-04-22T02:24:59.121Z,23.53
2019-04-22T02:27:33.853Z,30.47
2019-04-22T02:29:58.230Z,25.87
2019-04-22T02:32:48.522Z,28.67
2019-04-22T02:35:11.587Z,25.77
2019-04-22T02:37:27.730Z,21.13
2019-04-22T02:40:14.006Z,25.97
2019-04-22T02:42:23.534Z,28.17
2019-04-22T02:45:19.097Z,22.57
2019-04-22T02:47:31.592Z,24.80
2019-04-22T02:50:07.389Z,23.60
2019-04-22T02:57:39.985Z,26.27
2019-04-22T03:02:53.032Z,27.07
2019-04-22T03:05:08.940Z,25.43
2019-04-22T03:10:09.114Z,20.47
2019-04-22T03:17:38.294Z,23.00
2019-04-22T03:20:17.851Z,25.27
2019-04-22T03:22:38.536Z,23.33
2019-04-22T03:27:35.402Z,28.83
2019-04-22T03:42:52.009Z,18.30
2019-04-22T03:47:43.581Z,20.67
2019-04-22T03:50:28.018Z,21.30
2019-04-22T03:52:38.804Z,23.33
2019-04-22T04:00:17.422Z,23.77
2019-04-22T04:05:29.545Z,20.40
2019-04-22T04:10:30.207Z,24.60
2019-04-22T04:12:53.720Z,21.17
2019-04-22T04:17:51.855Z,24.90
2019-04-22T04:20:24.339Z,21.60
2019-04-22T04:25:26.705Z,25.70
2019-04-22T04:40:20.898Z,18.13
2019-04-22T04:50:18.258Z,16.87
2019-04-22T04:55:22.083Z,17.57
2019-04-22T04:57:57.631Z,17.30
2019-04-22T05:05:20.791Z,12.97
2019-04-22T05:15:18.584Z,16.50
2019-04-22T05:17:55.001Z,15.43
2019-04-22T05:20:24.152Z,16.00
2019-04-22T05:27:45.344Z,14.63
2019-04-22T05:30:23.415Z,16.70
2019-04-22T05:32:43.278Z,12.90
2019-04-22T05:35:14.589Z,17.47
2019-04-22T05:37:50.365Z,20.00
2019-04-22T05:40:20.249Z,13.40
2019-04-22T05:42:44.191Z,16.53
2019-04-22T05:45:23.092Z,19.07
2019-04-22T05:47:46.157Z,14.83
2019-04-22T05:50:13.058Z,15.90
2019-04-22T05:52:55.251Z,19.00
2019-04-22T05:55:52.368Z,17.57
2019-04-22T05:57:57.711Z,14.20
2019-04-22T06:01:01.626Z,14.60
2019-04-22T06:02:57.236Z,15.47
2019-04-22T06:05:32.192Z,16.90
2019-04-22T06:08:02.529Z,15.80
2019-04-22T06:10:39.919Z,14.27
2019-04-22T06:13:00.795Z,15.93
2019-04-22T06:15:33.906Z,11.90
2019-04-22T06:20:45.456Z,21.53
2019-04-22T06:23:12.659Z,13.27
2019-04-22T06:28:26.692Z,15.27
2019-04-22T06:30:43.202Z,18.43
2019-04-22T06:33:19.198Z,16.00
2019-04-22T06:35:59.008Z,19.87
2019-04-22T06:41:04.067Z,14.53
2019-04-22T06:45:40.182Z,18.60
2019-04-22T06:48:19.649Z,14.40
2019-04-22T06:53:16.853Z,13.10
2019-04-22T06:55:48.227Z,15.83
2019-04-22T06:58:15.266Z,16.63
2019-04-22T07:05:47.566Z,11.00
2019-04-22T07:08:39.306Z,11.57
2019-04-22T07:10:47.822Z,12.47
2019-04-22T07:13:23.395Z,11.63
2019-04-22T07:18:24.678Z,13.93
2019-04-22T07:20:55.420Z,13.77
2019-04-22T07:23:21.535Z,10.43
2019-04-22T07:25:45.178Z,11.70
2019-04-22T07:28:15.581Z,14.10
2019-04-22T07:30:56.122Z,12.47
2019-04-22T07:38:25.723Z,16.73
2019-04-22T07:41:02.138Z,12.47
2019-04-22T07:43:32.509Z,7.23
2019-04-22T07:45:49.423Z,9.90
2019-04-22T07:48:33.296Z,8.43
2019-04-22T07:50:56.364Z,9.43
2019-04-22T07:53:24.081Z,8.83
2019-04-22T07:55:54.942Z,8.27
2019-04-22T07:58:26.044Z,8.07
2019-04-22T08:00:59.102Z,7.13
2019-04-22T08:03:32.077Z,8.23
2019-04-22T08:08:25.760Z,7.17
2019-04-22T08:10:57.923Z,9.67
2019-04-22T08:13:24.827Z,7.03
2019-04-22T08:16:19.885Z,8.27
2019-04-22T08:18:31.253Z,9.40
2019-04-22T08:20:56.773Z,8.60
2019-04-22T08:25:55.490Z,10.03
2019-04-22T08:30:56.693Z,10.47
2019-04-22T08:33:29.049Z,7.43
2019-04-22T08:36:06.418Z,9.50
2019-04-22T08:39:25.311Z,8.87
2019-04-22T08:41:18.171Z,8.47
2019-04-22T08:43:47.675Z,10.27
2019-04-22T08:46:17.346Z,8.83
2019-04-22T08:48:47.745Z,9.57
2019-04-22T08:51:18.514Z,9.53
2019-04-22T08:53:51.866Z,10.43
2019-04-22T08:56:29.480Z,8.23
2019-04-22T08:58:50.224Z,6.03
2019-04-22T09:01:17.749Z,9.27
2019-04-22T09:03:46.926Z,7.83
2019-04-22T09:06:22.643Z,11.37
2019-04-22T09:08:49.421Z,8.50
2019-04-22T09:11:21.631Z,7.77
2019-04-22T09:13:50.430Z,7.27
2019-04-22T09:16:19.423Z,7.40
2019-04-22T09:18:48.575Z,10.48
2019-04-22T09:21:18.744Z,8.63
2019-04-22T09:23:57.166Z,9.23
2019-04-22T09:26:16.646Z,5.97
2019-04-22T09:28:54.851Z,7.90
2019-04-22T09:31:33.041Z,7.00
2019-04-22T09:33:45.541Z,8.15
2019-04-22T09:36:22.409Z,9.30
2019-04-22T09:41:24.473Z,8.58
2019-04-22T09:43:53.447Z,10.65
2019-04-22T09:46:19.813Z,8.33
2019-04-22T09:48:50.232Z,7.33
2019-04-22T09:51:19.006Z,9.93
2019-04-22T09:53:57.790Z,8.85
2019-04-22T09:56:18.081Z,9.05
2019-04-22T09:58:50.482Z,7.72
2019-04-22T10:01:24.376Z,7.40
2019-04-22T10:03:56.736Z,6.12
2019-04-22T10:06:33.561Z,8.75
2019-04-22T10:09:02.237Z,10.53
2019-04-22T10:11:27.982Z,8.93
2019-04-22T10:13:53.646Z,8.33
2019-04-22T10:16:27.681Z,6.30
2019-04-22T10:18:52.881Z,8.15
2019-04-22T10:21:31.827Z,8.90
2019-04-22T10:23:50.426Z,7.12
2019-04-22T10:26:26.495Z,6.95
2019-04-22T10:28:55.814Z,6.65
2019-04-22T10:31:23.906Z,6.70
2019-04-22T10:33:48.220Z,6.30
2019-04-22T10:35:57.405Z,8.23
2019-04-22T10:38:26.494Z,6.67
2019-04-22T10:40:56.481Z,7.78
2019-04-22T10:43:25.512Z,5.33
2019-04-22T10:45:54.517Z,6.83
2019-04-22T10:48:24.111Z,8.70
2019-04-22T10:50:54.602Z,8.50
2019-04-22T10:53:23.805Z,6.53
2019-04-22T10:55:52.421Z,7.72
2019-04-22T10:58:22.866Z,5.50
2019-04-22T11:00:52.352Z,9.55
2019-04-22T11:03:22.468Z,5.47
2019-04-22T11:05:53.935Z,5.80
2019-04-22T11:08:31.949Z,9.43
2019-04-22T11:11:09.389Z,7.50
2019-04-22T11:13:22.296Z,7.90
2019-04-22T11:15:52.557Z,7.75
2019-04-22T11:18:21.511Z,7.55
2019-04-22T11:20:51.413Z,8.08
2019-04-22T11:23:20.582Z,6.62
2019-04-22T11:25:50.013Z,6.60
2019-04-22T11:28:19.934Z,11.12
2019-04-22T11:30:50.206Z,9.55
2019-04-22T11:33:20.708Z,10.63
2019-04-22T11:35:50.100Z,13.50
2019-04-22T11:38:19.180Z,4.83
2019-04-22T11:41:07.231Z,9.08
2019-04-22T11:43:36.329Z,8.63
2019-04-22T11:46:07.308Z,8.15
2019-04-22T11:48:36.004Z,7.53
2019-04-22T11:51:04.494Z,9.35
2019-04-22T11:53:32.888Z,7.00
2019-04-22T11:56:02.671Z,7.40
2019-04-22T11:58:33.014Z,7.00
2019-04-22T12:01:02.969Z,8.63
2019-04-22T12:03:31.705Z,6.67
2019-04-22T12:06:01.885Z,7.90
2019-04-22T12:08:31.176Z,5.28
2019-04-22T12:11:03.839Z,5.47
2019-04-22T12:13:30.288Z,7.97
2019-04-22T12:15:59.077Z,5.58
2019-04-22T12:18:29.154Z,10.78
2019-04-22T12:20:59.226Z,7.33
2019-04-22T12:23:29.404Z,5.22
2019-04-22T12:26:04.209Z,7.83
2019-04-22T12:28:30.915Z,6.83
2019-04-22T12:30:59.653Z,4.28
2019-04-22T12:33:29.453Z,8.80
2019-04-22T12:35:58.249Z,5.67
2019-04-22T12:38:27.452Z,6.20
2019-04-22T12:41:00.367Z,5.65
2019-04-22T12:43:27.855Z,5.60
2019-04-22T12:45:56.635Z,9.10
2019-04-22T12:48:25.464Z,6.83
2019-04-22T12:50:56.438Z,5.08
2019-04-22T12:53:27.640Z,5.10
2019-04-22T12:55:55.468Z,7.65
2019-04-22T12:58:25.548Z,5.22
2019-04-22T13:00:54.665Z,5.60
2019-04-22T13:03:26.393Z,5.92
2019-04-22T13:05:53.893Z,6.72
2019-04-22T13:08:23.530Z,10.32
2019-04-22T13:11:00.332Z,5.78
2019-04-22T13:13:23.024Z,5.33
2019-04-22T13:15:53.113Z,6.58
2019-04-22T13:18:31.601Z,5.67
2019-04-22T13:20:52.860Z,7.15
2019-04-22T13:23:22.182Z,6.67
2019-04-22T13:25:52.354Z,8.05
2019-04-22T13:28:21.312Z,4.95
2019-04-22T13:30:50.866Z,6.83
2019-04-22T13:33:19.311Z,6.15
2019-04-22T13:35:49.799Z,6.70
2019-04-22T13:38:19.262Z,4.95
2019-04-22T13:41:00.916Z,3.87
2019-04-22T13:43:18.776Z,5.40
2019-04-22T13:45:49.786Z,5.70
2019-04-22T13:48:40.052Z,8.38
2019-04-22T13:51:21.879Z,4.22
2019-04-22T13:56:24.806Z,4.35
2019-04-22T13:58:37.073Z,7.60
2019-04-22T14:00:52.155Z,7.60
2019-04-22T14:03:35.767Z,6.00
2019-04-22T14:06:06.892Z,5.87
2019-04-22T14:08:37.460Z,4.75
2019-04-22T14:11:20.709Z,5.45
2019-04-22T14:13:37.754Z,6.78
2019-04-22T14:16:08.878Z,7.83
2019-04-22T14:18:38.968Z,3.92
2019-04-22T14:21:09.005Z,6.65
2019-04-22T14:23:38.478Z,6.17
2019-04-22T14:26:07.493Z,8.65
2019-04-22T14:28:37.352Z,7.17
2019-04-22T14:31:06.659Z,7.03
2019-04-22T14:33:36.273Z,8.75
2019-04-22T14:36:05.326Z,11.08
2019-04-22T14:38:34.698Z,12.45
2019-04-22T14:41:05.905Z,6.60
2019-04-22T14:44:43.035Z,7.08
2019-04-22T14:46:27.840Z,5.90
2019-04-22T14:49:01.374Z,6.12
2019-04-22T14:51:22.265Z,6.53
2019-04-22T14:53:57.727Z,4.80
2019-04-22T14:56:06.548Z,4.05
2019-04-22T14:58:35.502Z,8.23
2019-04-22T15:01:06.821Z,7.37
2019-04-22T15:03:39.900Z,4.20
2019-04-22T15:06:06.342Z,4.35
2019-04-22T15:08:35.384Z,6.62
2019-04-22T15:11:05.820Z,5.78
2019-04-22T15:13:33.902Z,5.78
2019-04-22T15:16:13.910Z,6.85
2019-04-22T15:18:53.783Z,8.73
2019-04-22T15:21:27.366Z,6.92
2019-04-22T15:23:56.375Z,6.87
2019-04-22T15:26:26.453Z,3.33
2019-04-22T15:28:55.509Z,5.33
2019-04-22T15:31:24.902Z,6.40
2019-04-22T15:33:54.382Z,4.00
2019-04-22T15:36:24.103Z,7.85
2019-04-22T15:38:53.421Z,4.80
2019-04-22T15:41:22.951Z,8.75
2019-04-22T15:43:52.152Z,7.90
2019-04-22T15:46:23.403Z,4.22
2019-04-22T15:48:53.741Z,4.67
2019-04-22T15:51:22.704Z,8.10
2019-04-22T15:53:51.953Z,5.58
2019-04-22T15:56:21.123Z,5.90
2019-04-22T15:58:51.337Z,5.80
2019-04-22T16:01:27.540Z,6.47
2019-04-22T16:03:50.438Z,3.60
2019-04-22T16:06:19.964Z,4.30
2019-04-22T16:08:49.743Z,5.20
2019-04-22T16:11:19.926Z,5.37
2019-04-22T16:13:48.612Z,5.37
2019-04-22T16:16:18.551Z,4.83
2019-04-22T16:18:48.477Z,4.03
2019-04-22T16:21:30.166Z,7.62
2019-04-22T16:23:52.157Z,4.55
2019-04-22T16:26:42.348Z,3.90
2019-04-22T16:29:13.515Z,6.17
2019-04-22T16:31:43.023Z,6.25
2019-04-22T16:34:13.270Z,5.05
2019-04-22T16:36:42.839Z,4.22
2019-04-22T16:39:15.111Z,5.03
2019-04-22T16:41:44.530Z,4.95
2019-04-22T16:44:14.364Z,5.55
2019-04-22T16:46:43.755Z,3.52
2019-04-22T16:49:15.820Z,3.40
2019-04-22T16:51:45.721Z,4.30
2019-04-22T16:54:15.949Z,6.92
2019-04-22T16:56:45.798Z,5.33
2019-04-22T16:59:14.953Z,5.10
2019-04-22T17:01:46.286Z,3.27
2019-04-22T17:04:25.893Z,5.23
2019-04-22T17:06:57.488Z,6.17
2019-04-22T17:09:26.033Z,5.73
2019-04-22T17:11:54.430Z,4.50
2019-04-22T17:14:29.568Z,3.30
2019-04-22T17:16:52.945Z,5.80
2019-04-22T17:19:21.757Z,5.57
2019-04-22T17:21:50.172Z,6.23
2019-04-22T17:24:19.503Z,4.00
2019-04-22T17:26:48.535Z,5.70
2019-04-22T17:29:16.926Z,3.77
2019-04-22T17:31:50.928Z,8.80
2019-04-22T17:34:15.877Z,8.73
2019-04-22T17:36:46.233Z,3.90
2019-04-22T17:39:30.120Z,5.53
2019-04-22T17:42:07.206Z,4.80
2019-04-22T17:44:59.196Z,5.17
2019-04-22T17:47:16.335Z,5.40
2019-04-22T17:49:53.817Z,5.33
2019-04-22T17:52:24.968Z,6.63
2019-04-22T17:57:23.827Z,5.87
2019-04-22T17:59:51.798Z,5.03
2019-04-22T18:02:22.111Z,4.50
2019-04-22T18:04:40.073Z,5.60
2019-04-22T18:07:31.508Z,6.83
2019-04-22T18:12:34.302Z,5.33
2019-04-22T18:14:59.644Z,5.40
2019-04-22T18:17:32.404Z,6.30
2019-04-22T18:19:54.642Z,7.83
2019-04-22T18:22:19.922Z,7.57
2019-04-22T18:24:53.010Z,4.43
2019-04-22T18:27:43.032Z,4.17
2019-04-22T18:29:52.022Z,5.37
2019-04-22T18:32:17.583Z,6.50
2019-04-22T18:34:49.310Z,3.37
2019-04-22T18:37:23.678Z,3.27
2019-04-22T18:39:58.495Z,6.70
2019-04-22T18:42:23.900Z,4.97
2019-04-22T18:45:09.893Z,5.93
2019-04-22T18:47:23.767Z,3.70
2019-04-22T18:49:53.606Z,4.83
2019-04-22T18:52:35.568Z,6.23
2019-04-22T18:55:02.649Z,4.40
2019-04-22T18:57:47.984Z,4.77
2019-04-22T19:00:04.259Z,5.97
2019-04-22T19:02:34.029Z,4.77
2019-04-22T19:05:12.150Z,5.50
2019-04-22T19:08:00.645Z,7.37
2019-04-22T19:10:31.225Z,4.03
2019-04-22T19:13:17.437Z,6.03
2019-04-22T19:15:24.446Z,7.67
2019-04-22T19:18:02.173Z,4.23
2019-04-22T19:20:32.938Z,3.73
2019-04-22T19:22:57.502Z,7.07
2019-04-22T19:25:25.849Z,5.17
2019-04-22T19:28:01.278Z,3.90
2019-04-22T19:30:35.008Z,5.30
2019-04-22T19:33:06.408Z,6.80
2019-04-22T19:35:26.872Z,5.90
2019-04-22T19:37:57.629Z,5.27
2019-04-22T19:40:58.154Z,5.50
2019-04-22T19:43:16.036Z,4.23
2019-04-22T19:45:40.708Z,7.00
2019-04-22T19:48:25.513Z,5.90
2019-04-22T19:50:52.701Z,4.70
2019-04-22T19:53:19.593Z,5.57
2019-04-22T19:55:47.009Z,5.73
2019-04-22T19:58:14.694Z,4.90
2019-04-22T20:00:45.680Z,5.73
2019-04-22T20:03:33.367Z,4.83
2019-04-22T20:05:56.238Z,5.63
2019-04-22T20:08:26.328Z,5.87
2019-04-22T20:10:59.140Z,6.90
2019-04-22T20:13:30.985Z,7.13
2019-04-22T20:15:50.914Z,6.03
2019-04-22T20:18:34.413Z,7.77
2019-04-22T20:21:00.474Z,7.63
2019-04-22T20:23:24.283Z,7.40
2019-04-22T20:25:51.062Z,5.10
2019-04-22T20:28:33.064Z,3.87
2019-04-22T20:30:55.389Z,4.40
2019-04-22T20:33:35.318Z,6.20
2019-04-22T20:35:58.337Z,5.63
2019-04-22T20:38:29.741Z,4.83
2019-04-22T20:40:55.289Z,4.07
2019-04-22T20:43:35.725Z,4.00
2019-04-22T20:46:02.421Z,5.77
2019-04-22T20:48:28.614Z,4.93
2019-04-22T20:50:58.124Z,3.60
2019-04-22T20:53:34.411Z,5.93
2019-04-22T20:56:02.658Z,9.80
2019-04-22T20:58:33.717Z,5.33
2019-04-22T21:00:55.609Z,5.57
2019-04-22T21:03:24.356Z,5.20
2019-04-22T21:05:53.007Z,4.70
2019-04-22T21:08:30.548Z,6.63
2019-04-22T21:10:53.497Z,6.17
2019-04-22T21:13:23.127Z,4.83
2019-04-22T21:16:04.106Z,6.27
2019-04-22T21:18:27.491Z,6.57
2019-04-22T21:21:03.851Z,8.13
2019-04-22T21:23:29.142Z,5.83
2019-04-22T21:26:02.346Z,3.90
2019-04-22T21:28:34.226Z,6.97
2019-04-22T21:30:59.691Z,5.30
2019-04-22T21:33:25.473Z,6.97
2019-04-22T21:38:35.928Z,8.13
2019-04-22T21:41:07.860Z,5.13
2019-04-22T21:43:39.808Z,6.80
2019-04-22T21:46:08.480Z,3.70
2019-04-22T21:48:37.208Z,3.97
2019-04-22T21:51:08.602Z,4.57
2019-04-22T21:53:43.508Z,6.07
2019-04-22T21:56:27.258Z,7.27
2019-04-22T21:58:52.998Z,4.60
2019-04-22T22:03:55.723Z,2.90
2019-04-22T22:06:15.163Z,4.20
2019-04-22T22:08:59.677Z,5.57
2019-04-22T22:11:26.030Z,8.23
2019-04-22T22:13:56.377Z,3.83
2019-04-22T22:16:18.967Z,5.80
2019-04-22T22:19:00.919Z,6.60
2019-04-22T22:21:40.695Z,5.73
2019-04-22T22:24:00.990Z,4.10
2019-04-22T22:26:19.222Z,5.20
2019-04-22T22:31:34.717Z,4.27
2019-04-22T22:34:04.052Z,4.57
2019-04-22T22:36:23.771Z,5.43
2019-04-22T22:38:55.124Z,6.20
2019-04-22T22:41:07.801Z,5.27
2019-04-22T22:43:42.005Z,3.63
2019-04-22T22:46:20.460Z,4.20
2019-04-22T22:49:01.383Z,5.63
2019-04-22T22:51:34.340Z,5.47
2019-04-22T22:54:01.597Z,4.90
2019-04-22T22:56:39.290Z,3.30
2019-04-22T22:59:01.760Z,3.00
2019-04-22T23:01:31.782Z,4.90
2019-04-22T23:03:55.855Z,7.93
2019-04-22T23:06:32.818Z,3.17
2019-04-22T23:09:04.114Z,6.23
2019-04-22T23:11:50.812Z,5.60
2019-04-22T23:14:02.604Z,4.60
2019-04-22T23:16:18.181Z,5.33
2019-04-22T23:18:57.526Z,4.83
2019-04-22T23:21:33.215Z,4.70
2019-04-22T23:24:20.346Z,8.00
2019-04-22T23:26:43.168Z,5.27
2019-04-22T23:29:10.419Z,5.13
2019-04-22T23:31:44.168Z,7.57
2019-04-22T23:34:26.596Z,4.80
2019-04-22T23:37:06.868Z,3.23
2019-04-22T23:39:51.860Z,3.80
2019-04-22T23:42:19.513Z,5.57
2019-04-22T23:44:43.369Z,4.03
2019-04-22T23:47:14.887Z,7.53
2019-04-22T23:49:53.303Z,5.07
2019-04-22T23:52:25.589Z,2.93
2019-04-22T23:54:57.150Z,5.63
2019-04-22T23:57:30.780Z,3.27
